Time;durP1;ratioP1;P1;durP2;ratioP2;P2;SDS_P1;SDS_P2;PMS_P1;PMS_P2;Temp;Humidity;BMP_temperature;BMP_pressure;BME280_temperature;BME280_humidity;BME280_pressure;Samples;Min_cycle;Max_cycle;Signal;HPM_P1;HPM_P2
2022/12/29 00:02:09;;;;;;;1.80;1.70;;;10.30;1.00;;;;;;5036733;28;20231;-58
2022/12/29 00:04:35;;;;;;;1.60;1.00;;;10.30;1.00;;;;;;5033961;28;20200;-58
2022/12/29 00:07:03;;;;;;;2.10;1.20;;;10.50;1.00;;;;;;5040133;28;20886;-58
2022/12/29 00:09:28;;;;;;;3.27;1.47;;;10.70;1.00;;;;;;5037269;28;20544;-58
2022/12/29 00:11:54;;;;;;;1.13;0.93;;;10.80;1.00;;;;;;5036149;28;20455;-60
2022/12/29 00:17:07;;;;;;;1.17;0.80;;;11.20;1.00;;;;;;5039209;28;20211;-59
2022/12/29 00:36:11;;;;;;;1.00;0.90;;;11.90;1.00;;;;;;5043418;28;20472;-58
2022/12/29 00:44:12;;;;;;;1.47;1.23;;;12.00;1.00;;;;;;5039715;28;20471;-58
2022/12/29 00:46:39;;;;;;;3.40;1.30;;;12.00;1.00;;;;;;5039103;28;20939;-57
2022/12/29 00:51:51;;;;;;;1.63;1.10;;;12.00;1.00;;;;;;5040223;28;20557;-58
2022/12/29 00:54:17;;;;;;;4.03;1.47;;;12.00;1.00;;;;;;5040890;28;20518;-59
2022/12/29 00:56:45;;;;;;;1.13;1.03;;;12.00;1.00;;;;;;5038317;28;20822;-57
2022/12/29 00:59:11;;;;;;;1.00;0.83;;;12.00;1.00;;;;;;5038255;28;20511;-57
2022/12/29 01:01:38;;;;;;;2.97;1.23;;;12.00;1.00;;;;;;5039951;28;20453;-58
2022/12/29 01:04:04;;;;;;;2.80;1.00;;;12.00;1.00;;;;;;5041661;28;20420;-59
2022/12/29 01:06:30;;;;;;;1.70;1.17;;;12.10;1.00;;;;;;5039181;28;20904;-59
2022/12/29 01:11:40;;;;;;;2.47;1.27;;;11.90;1.00;;;;;;5038575;28;20434;-58
2022/12/29 01:14:06;;;;;;;1.73;1.17;;;12.00;1.00;;;;;;5039250;28;20450;-59
2022/12/29 01:16:32;;;;;;;1.30;1.13;;;12.00;1.00;;;;;;5038409;28;20187;-58
2022/12/29 01:18:58;;;;;;;1.93;1.10;;;11.90;1.00;;;;;;5037681;28;20516;-59
2022/12/29 01:21:24;;;;;;;1.33;1.10;;;11.90;1.00;;;;;;5038871;28;20194;-58
2022/12/29 01:23:50;;;;;;;1.63;1.27;;;12.00;1.00;;;;;;5036276;28;20456;-58
2022/12/29 01:26:17;;;;;;;2.67;1.03;;;11.90;1.00;;;;;;5038067;28;21135;-58
2022/12/29 01:28:43;;;;;;;1.63;1.00;;;11.90;1.00;;;;;;5037595;28;20211;-59
2022/12/29 01:31:10;;;;;;;1.50;1.30;;;11.70;1.00;;;;;;5038722;28;20429;-58
2022/12/29 01:33:36;;;;;;;1.53;1.27;;;11.80;1.00;;;;;;5041050;28;20470;-58
2022/12/29 01:36:10;;;;;;;2.50;1.20;;;11.70;1.00;;;;;;5039735;28;20453;-59
2022/12/29 01:38:36;;;;;;;3.13;1.10;;;11.90;1.00;;;;;;5037667;28;20458;-58
2022/12/29 01:41:03;;;;;;;1.77;1.60;;;11.80;1.00;;;;;;5040374;28;20837;-58
2022/12/29 01:43:57;;;;;;;0.90;0.90;;;11.70;1.00;;;;;;5036830;28;20958;-59
2022/12/29 01:46:25;;;;;;;3.00;1.53;;;11.70;1.00;;;;;;5037510;28;20473;-59
2022/12/29 01:48:54;;;;;;;2.67;1.17;;;11.70;1.00;;;;;;5038014;28;20564;-58
2022/12/29 01:51:23;;;;;;;1.93;1.13;;;11.80;1.00;;;;;;5037176;28;20795;-58
2022/12/29 01:53:50;;;;;;;2.10;1.47;;;11.90;1.00;;;;;;5035027;28;20505;-58
2022/12/29 01:56:18;;;;;;;2.20;1.23;;;11.80;1.00;;;;;;5044252;28;20455;-58
2022/12/29 01:58:48;;;;;;;1.93;1.00;;;11.70;1.00;;;;;;5049427;28;20538;-58
2022/12/29 02:01:16;;;;;;;1.90;1.10;;;11.70;1.00;;;;;;5045691;28;20830;-58
2022/12/29 02:03:42;;;;;;;1.60;1.07;;;11.70;1.00;;;;;;5047983;28;20449;-58
2022/12/29 02:06:18;;;;;;;1.27;1.17;;;11.70;1.00;;;;;;5045676;28;20773;-58
2022/12/29 02:08:46;;;;;;;1.23;1.10;;;11.90;1.00;;;;;;5046756;28;20211;-58
2022/12/29 02:11:13;;;;;;;4.47;1.40;;;11.90;1.00;;;;;;5044772;28;20428;-58
2022/12/29 02:13:39;;;;;;;3.33;1.87;;;11.90;1.00;;;;;;5044926;28;20426;-58
2022/12/29 02:16:20;;;;;;;1.37;1.00;;;11.70;1.00;;;;;;5047120;28;20444;-58
2022/12/29 02:18:51;;;;;;;3.83;1.80;;;11.70;1.00;;;;;;5044947;28;20687;-57
2022/12/29 02:21:34;;;;;;;2.07;1.60;;;11.90;1.00;;;;;;5047530;28;20897;-58
2022/12/29 02:24:19;;;;;;;1.37;1.20;;;11.70;1.00;;;;;;5044468;28;20992;-58
2022/12/29 02:26:49;;;;;;;2.53;1.50;;;11.70;1.00;;;;;;5046881;28;20489;-58
2022/12/29 02:29:27;;;;;;;2.13;1.67;;;11.70;1.00;;;;;;5047745;28;20565;-58
2022/12/29 02:32:00;;;;;;;1.77;1.33;;;11.70;1.00;;;;;;5047524;28;20436;-58
2022/12/29 02:34:41;;;;;;;1.60;1.50;;;11.90;1.00;;;;;;5046847;28;20410;-58
2022/12/29 02:37:30;;;;;;;1.77;1.50;;;12.10;1.00;;;;;;5044107;28;20536;-57
2022/12/29 02:40:27;;;;;;;4.83;1.40;;;12.20;1.00;;;;;;5045606;28;20451;-58
2022/12/29 02:43:21;;;;;;;1.70;1.23;;;12.30;1.00;;;;;;5042733;28;20448;-58
2022/12/29 02:46:04;;;;;;;1.20;1.00;;;12.20;1.00;;;;;;5042875;28;20448;-59
2022/12/29 02:48:41;;;;;;;2.40;1.57;;;12.30;1.00;;;;;;5046860;28;20485;-59
2022/12/29 02:51:18;;;;;;;1.60;1.30;;;12.30;1.00;;;;;;5048247;28;20460;-58
2022/12/29 02:56:28;;;;;;;2.27;1.40;;;12.40;1.00;;;;;;5046263;28;20478;-58
2022/12/29 02:58:54;;;;;;;2.20;1.17;;;12.40;1.00;;;;;;5047022;28;20477;-58
2022/12/29 03:01:38;;;;;;;1.17;1.07;;;12.40;1.00;;;;;;5046778;28;20210;-58
2022/12/29 03:04:37;;;;;;;2.43;1.53;;;12.40;1.00;;;;;;5046433;28;20192;-58
2022/12/29 03:07:17;;;;;;;1.43;1.33;;;12.50;1.00;;;;;;5043603;28;20452;-59
2022/12/29 03:09:47;;;;;;;1.80;1.20;;;12.60;1.00;;;;;;5041846;28;20483;-57
2022/12/29 03:19:04;;;;;;;1.93;1.67;;;12.60;1.00;;;;;;5044256;28;20510;-58
2022/12/29 03:24:31;;;;;;;2.20;1.07;;;12.80;1.00;;;;;;5043820;28;20493;-57
2022/12/29 03:27:00;;;;;;;1.43;1.33;;;12.80;1.00;;;;;;5036550;28;20858;-57
2022/12/29 03:29:30;;;;;;;1.87;1.20;;;12.80;1.00;;;;;;5035618;28;20447;-58
2022/12/29 03:31:58;;;;;;;1.40;1.30;;;12.90;1.00;;;;;;5046744;28;20456;-58
2022/12/29 03:34:25;;;;;;;1.60;1.50;;;12.90;1.00;;;;;;5046376;28;20416;-59
2022/12/29 03:36:55;;;;;;;2.73;1.40;;;12.90;1.00;;;;;;5039658;28;21392;-58
2022/12/29 03:39:23;;;;;;;1.87;1.50;;;12.90;1.00;;;;;;5034394;28;20453;-60
2022/12/29 03:41:53;;;;;;;3.17;1.67;;;13.00;1.00;;;;;;5036838;28;20449;-59
2022/12/29 03:44:18;;;;;;;1.70;1.60;;;13.00;1.00;;;;;;5041899;28;20631;-59
2022/12/29 03:46:44;;;;;;;1.73;1.43;;;13.00;1.00;;;;;;5037675;28;20887;-58
2022/12/29 03:49:10;;;;;;;1.33;1.20;;;13.00;1.00;;;;;;5039411;28;20236;-57
2022/12/29 03:51:35;;;;;;;2.20;1.40;;;13.00;1.00;;;;;;5041255;28;20190;-59
2022/12/29 03:54:02;;;;;;;2.00;1.20;;;13.00;1.00;;;;;;5040086;28;20210;-59
2022/12/29 03:56:28;;;;;;;1.53;1.10;;;13.10;1.00;;;;;;5036772;28;20188;-57
2022/12/29 03:58:54;;;;;;;1.03;1.00;;;13.10;1.00;;;;;;5038709;28;20448;-58
2022/12/29 04:01:19;;;;;;;1.30;1.20;;;13.20;1.00;;;;;;5039121;28;20247;-58
2022/12/29 04:03:45;;;;;;;3.10;1.40;;;13.10;1.00;;;;;;5040535;28;20459;-57
2022/12/29 04:06:11;;;;;;;2.60;1.30;;;13.00;1.00;;;;;;5043330;28;20574;-58
2022/12/29 04:08:36;;;;;;;1.47;1.30;;;12.90;1.00;;;;;;5050236;28;20219;-59
2022/12/29 04:11:02;;;;;;;1.50;1.10;;;12.90;1.00;;;;;;5048743;28;20191;-59
2022/12/29 04:13:27;;;;;;;1.60;1.10;;;12.90;1.00;;;;;;5048950;28;20187;-58
2022/12/29 04:15:53;;;;;;;2.33;1.17;;;12.90;1.00;;;;;;5052000;28;20232;-59
2022/12/29 04:18:18;;;;;;;1.67;1.07;;;13.00;1.00;;;;;;5051035;28;20194;-59
2022/12/29 04:21:00;;;;;;;1.53;1.27;;;12.90;1.00;;;;;;5050803;28;20194;-58
2022/12/29 04:23:26;;;;;;;1.37;1.00;;;13.10;1.00;;;;;;5050849;28;20547;-58
2022/12/29 04:25:52;;;;;;;3.60;1.20;;;13.10;1.00;;;;;;5049511;28;20542;-58
2022/12/29 04:28:18;;;;;;;1.10;1.00;;;13.20;1.00;;;;;;5049279;28;20536;-58
2022/12/29 04:30:44;;;;;;;1.10;1.00;;;13.00;1.00;;;;;;5041222;28;20577;-57
2022/12/29 04:33:10;;;;;;;1.10;1.00;;;13.10;1.00;;;;;;5033317;28;21408;-58
2022/12/29 04:35:36;;;;;;;1.53;1.10;;;13.10;1.00;;;;;;5048587;28;20446;-58
2022/12/29 04:38:02;;;;;;;2.63;1.20;;;13.10;1.00;;;;;;5050657;28;20971;-59
2022/12/29 04:40:27;;;;;;;2.53;1.30;;;13.10;1.00;;;;;;5048190;28;20202;-60
2022/12/29 04:42:53;;;;;;;1.00;0.90;;;13.20;1.00;;;;;;5051476;28;20496;-58
2022/12/29 04:45:19;;;;;;;1.90;1.10;;;13.20;1.00;;;;;;5046390;28;20531;-58
2022/12/29 04:47:44;;;;;;;1.70;1.27;;;13.10;1.00;;;;;;5041625;28;20231;-58
2022/12/29 04:50:10;;;;;;;1.20;1.00;;;13.10;1.00;;;;;;5043784;28;20674;-58
2022/12/29 04:52:36;;;;;;;2.13;1.07;;;13.20;1.00;;;;;;5048870;28;20700;-58
2022/12/29 04:55:02;;;;;;;1.20;1.10;;;13.20;1.00;;;;;;5048856;28;20199;-58
2022/12/29 04:57:28;;;;;;;2.17;1.50;;;13.10;1.00;;;;;;5047068;28;20450;-59
2022/12/29 04:59:53;;;;;;;1.93;1.20;;;13.10;1.00;;;;;;5049302;28;20441;-59
2022/12/29 05:02:19;;;;;;;1.10;1.00;;;13.20;1.00;;;;;;5048783;28;20238;-57
2022/12/29 05:04:46;;;;;;;1.30;1.10;;;13.00;1.00;;;;;;5049426;28;20186;-58
2022/12/29 05:07:11;;;;;;;1.70;1.10;;;13.10;1.00;;;;;;5050829;28;20589;-57
2022/12/29 05:09:37;;;;;;;2.00;1.77;;;13.10;1.00;;;;;;5048144;28;20538;-58
2022/12/29 05:12:03;;;;;;;1.30;1.03;;;12.90;1.00;;;;;;5049726;28;20191;-57
2022/12/29 05:14:29;;;;;;;2.43;1.00;;;12.80;1.00;;;;;;5048088;28;20185;-58
2022/12/29 05:16:54;;;;;;;2.30;1.30;;;12.70;1.00;;;;;;5047109;28;20965;-57
2022/12/29 05:19:20;;;;;;;1.80;1.43;;;12.60;1.00;;;;;;5048856;28;20180;-58
2022/12/29 05:21:46;;;;;;;1.97;0.90;;;12.50;1.00;;;;;;5048904;28;20252;-58
2022/12/29 05:24:11;;;;;;;1.80;1.10;;;12.60;1.00;;;;;;5048148;28;20236;-58
2022/12/29 05:26:37;;;;;;;2.23;1.27;;;12.70;1.00;;;;;;5049124;28;20573;-57
2022/12/29 05:29:03;;;;;;;4.30;1.30;;;12.70;1.00;;;;;;5049603;28;20716;-57
2022/12/29 05:31:28;;;;;;;3.17;1.83;;;12.80;1.00;;;;;;5049121;28;20189;-57
2022/12/29 05:33:54;;;;;;;1.60;1.20;;;12.90;1.00;;;;;;5048917;28;20191;-58
2022/12/29 05:36:19;;;;;;;2.40;1.20;;;12.70;1.00;;;;;;5049294;28;20564;-58
2022/12/29 05:38:45;;;;;;;1.30;1.03;;;12.80;1.00;;;;;;5047857;28;20218;-57
2022/12/29 05:41:11;;;;;;;1.40;1.30;;;12.90;1.00;;;;;;5047474;28;20202;-57
2022/12/29 05:43:36;;;;;;;2.57;1.23;;;12.90;1.00;;;;;;5048766;28;20679;-59
2022/12/29 05:46:03;;;;;;;1.60;1.23;;;13.00;1.00;;;;;;5050374;28;20198;-57
2022/12/29 05:48:28;;;;;;;1.10;1.00;;;12.90;1.00;;;;;;5048810;28;20226;-58
2022/12/29 05:50:54;;;;;;;1.10;1.00;;;12.90;1.00;;;;;;5049865;28;20598;-56
2022/12/29 05:53:20;;;;;;;1.50;1.40;;;13.00;1.00;;;;;;5046507;28;20202;-58
2022/12/29 05:55:49;;;;;;;1.57;1.30;;;13.10;1.00;;;;;;5047130;28;20190;-56
2022/12/29 05:58:16;;;;;;;1.67;1.57;;;13.20;1.00;;;;;;5046018;28;20191;-57
2022/12/29 06:00:42;;;;;;;2.17;1.20;;;13.10;1.00;;;;;;5056951;28;20441;-58
2022/12/29 06:03:07;;;;;;;1.90;1.20;;;13.10;1.00;;;;;;5049670;28;20419;-57
2022/12/29 06:05:33;;;;;;;1.40;1.13;;;13.10;1.00;;;;;;5047851;28;20588;-57
2022/12/29 06:07:59;;;;;;;1.50;1.27;;;13.20;1.00;;;;;;5046940;28;20195;-56
2022/12/29 06:10:25;;;;;;;2.30;1.20;;;13.30;1.00;;;;;;5044841;28;20562;-56
2022/12/29 06:12:50;;;;;;;1.20;1.00;;;13.10;1.00;;;;;;5057106;28;20187;-56
2022/12/29 06:15:16;;;;;;;1.20;1.10;;;13.20;1.00;;;;;;5049895;28;20454;-56
2022/12/29 06:17:42;;;;;;;2.77;1.33;;;13.20;1.00;;;;;;5049838;28;20180;-58
2022/12/29 06:20:09;;;;;;;1.27;0.90;;;13.30;1.00;;;;;;5047752;28;20221;-57
2022/12/29 06:22:35;;;;;;;2.30;1.63;;;13.30;1.00;;;;;;5048278;28;20176;-57
2022/12/29 06:25:01;;;;;;;1.10;1.00;;;13.30;1.00;;;;;;5047125;28;20455;-58
2022/12/29 06:27:27;;;;;;;1.37;0.90;;;13.30;1.00;;;;;;5048886;28;21181;-57
2022/12/29 06:29:52;;;;;;;1.40;0.93;;;13.30;1.00;;;;;;5047819;28;21177;-57
2022/12/29 06:32:18;;;;;;;1.80;1.13;;;13.30;1.00;;;;;;5046748;28;20257;-57
2022/12/29 06:34:44;;;;;;;1.20;1.07;;;13.30;1.00;;;;;;5048964;28;20187;-57
2022/12/29 06:37:10;;;;;;;2.07;1.30;;;13.20;1.00;;;;;;5048827;28;20194;-57
2022/12/29 06:39:36;;;;;;;1.33;1.23;;;13.30;1.00;;;;;;5046161;28;20967;-57
2022/12/29 06:42:02;;;;;;;1.47;1.10;;;13.30;1.00;;;;;;5048110;28;20451;-57
2022/12/29 06:44:27;;;;;;;0.80;0.80;;;13.10;1.00;;;;;;5047486;28;20205;-57
2022/12/29 06:46:53;;;;;;;1.67;1.20;;;13.00;1.00;;;;;;5047719;28;20194;-57
2022/12/29 06:49:18;;;;;;;1.50;1.07;;;13.00;1.00;;;;;;5046212;28;20335;-57
2022/12/29 06:51:44;;;;;;;3.20;2.73;;;13.00;1.00;;;;;;5048484;28;20172;-58
2022/12/29 06:54:09;;;;;;;1.90;0.90;;;13.00;1.00;;;;;;5046469;28;20187;-57
2022/12/29 06:56:35;;;;;;;1.70;1.03;;;12.90;1.00;;;;;;5048125;28;20648;-58
2022/12/29 06:59:01;;;;;;;3.23;1.20;;;12.90;1.00;;;;;;5045539;28;20222;-57
2022/12/29 07:01:27;;;;;;;2.83;1.40;;;12.80;1.00;;;;;;5049425;28;20190;-57
2022/12/29 07:03:52;;;;;;;2.47;1.10;;;12.80;1.00;;;;;;5048776;28;20190;-59
2022/12/29 07:06:18;;;;;;;2.07;1.10;;;12.70;1.00;;;;;;5048168;28;20187;-58
2022/12/29 07:08:43;;;;;;;1.27;1.17;;;12.60;1.00;;;;;;5048684;28;20215;-57
2022/12/29 07:11:09;;;;;;;2.70;1.07;;;12.40;1.00;;;;;;5047582;28;20195;-58
2022/12/29 07:13:35;;;;;;;1.13;1.03;;;12.50;1.00;;;;;;5048226;28;20206;-57
2022/12/29 07:16:08;;;;;;;1.27;1.17;;;12.40;1.00;;;;;;5047711;28;20185;-58
2022/12/29 07:18:34;;;;;;;1.73;1.50;;;12.40;1.00;;;;;;5047936;28;20862;-58
2022/12/29 07:21:00;;;;;;;2.30;2.03;;;12.60;1.00;;;;;;5048923;28;20439;-58
2022/12/29 07:23:27;;;;;;;1.87;1.60;;;12.70;1.00;;;;;;5047883;28;20183;-59
2022/12/29 07:26:11;;;;;;;2.63;1.60;;;12.80;1.00;;;;;;5051717;28;20585;-58
2022/12/29 07:28:38;;;;;;;2.60;1.20;;;12.90;1.00;;;;;;5050359;28;20449;-58
2022/12/29 07:31:04;;;;;;;1.50;1.40;;;12.80;1.00;;;;;;5051786;28;20456;-57
2022/12/29 07:33:31;;;;;;;1.30;1.20;;;12.80;1.00;;;;;;5052689;28;20813;-58
2022/12/29 07:35:57;;;;;;;2.50;1.70;;;12.90;1.00;;;;;;5051988;28;20975;-57
2022/12/29 07:38:23;;;;;;;1.53;1.43;;;13.00;1.00;;;;;;5050157;28;20445;-57
2022/12/29 07:40:49;;;;;;;1.20;1.10;;;13.00;1.00;;;;;;5050577;28;20450;-57
2022/12/29 07:43:14;;;;;;;1.80;1.40;;;13.00;1.00;;;;;;5050751;28;20293;-57
2022/12/29 07:45:40;;;;;;;1.30;1.17;;;13.00;1.00;;;;;;5051665;28;20437;-58
2022/12/29 07:48:09;;;;;;;2.70;1.60;;;13.00;1.00;;;;;;5052614;28;20215;-57
2022/12/29 07:50:35;;;;;;;1.50;1.23;;;13.00;1.00;;;;;;5052806;28;20208;-58
2022/12/29 07:53:01;;;;;;;2.37;1.53;;;13.10;1.00;;;;;;5052293;28;20946;-58
2022/12/29 07:55:27;;;;;;;2.70;1.57;;;13.00;1.00;;;;;;5049658;28;20437;-58
2022/12/29 07:57:56;;;;;;;2.27;1.40;;;13.00;1.00;;;;;;5052778;28;20777;-58
2022/12/29 08:00:22;;;;;;;3.33;1.60;;;13.10;1.00;;;;;;5052607;28;20188;-58
2022/12/29 08:02:49;;;;;;;1.50;1.40;;;13.00;1.00;;;;;;5052219;28;20448;-57
2022/12/29 08:05:15;;;;;;;1.43;1.30;;;13.00;1.00;;;;;;5052488;28;20416;-58
2022/12/29 08:07:43;;;;;;;1.27;1.17;;;13.00;1.00;;;;;;5051876;28;20441;-57
2022/12/29 08:10:10;;;;;;;1.10;1.00;;;13.10;1.00;;;;;;5051974;28;20469;-57
2022/12/29 08:12:37;;;;;;;2.50;1.10;;;13.10;1.00;;;;;;5052069;28;20544;-57
2022/12/29 08:15:03;;;;;;;2.43;1.63;;;13.10;1.00;;;;;;5052228;28;20413;-57
2022/12/29 08:17:29;;;;;;;1.60;1.43;;;13.10;1.00;;;;;;5052465;28;20824;-58
2022/12/29 08:19:54;;;;;;;1.40;1.30;;;13.10;1.00;;;;;;5049128;28;20445;-57
2022/12/29 08:22:20;;;;;;;1.00;0.90;;;13.10;1.00;;;;;;5051896;28;20669;-57
2022/12/29 08:24:45;;;;;;;2.70;1.50;;;13.10;1.00;;;;;;5051851;28;20229;-58
2022/12/29 08:27:11;;;;;;;2.43;1.87;;;13.20;1.00;;;;;;5069840;28;20229;-58
2022/12/29 08:29:37;;;;;;;1.70;1.50;;;13.30;1.00;;;;;;5066129;28;20609;-59
2022/12/29 08:32:03;;;;;;;1.53;1.43;;;13.40;1.00;;;;;;5051624;28;20495;-58
2022/12/29 08:34:30;;;;;;;4.20;1.80;;;13.60;1.00;;;;;;5049465;28;20295;-59
2022/12/29 08:36:56;;;;;;;1.60;1.50;;;13.30;1.00;;;;;;5051387;28;20198;-58
2022/12/29 08:39:22;;;;;;;1.70;1.40;;;13.00;1.00;;;;;;5050792;28;20450;-57
2022/12/29 08:41:47;;;;;;;2.67;1.80;;;12.90;1.00;;;;;;5051616;28;20293;-57
2022/12/29 08:44:13;;;;;;;1.43;1.33;;;12.90;1.00;;;;;;5051576;28;20195;-56
2022/12/29 08:46:39;;;;;;;2.40;1.60;;;12.90;1.00;;;;;;5051754;28;20182;-57
2022/12/29 08:49:04;;;;;;;1.70;1.60;;;13.00;1.00;;;;;;5051120;28;20560;-58
2022/12/29 08:51:30;;;;;;;1.67;1.53;;;12.90;1.00;;;;;;5051373;28;20185;-57
2022/12/29 08:53:56;;;;;;;1.90;1.53;;;12.90;1.00;;;;;;5050184;28;20231;-58
2022/12/29 08:56:23;;;;;;;3.70;1.37;;;13.00;1.00;;;;;;5050676;28;20481;-58
2022/12/29 08:58:49;;;;;;;3.20;2.00;;;13.10;1.00;;;;;;5051303;28;20179;-58
2022/12/29 09:01:15;;;;;;;3.10;1.50;;;13.30;1.00;;;;;;5051196;28;20500;-57
2022/12/29 09:03:40;;;;;;;1.87;1.47;;;13.20;1.00;;;;;;5051027;28;20441;-58
2022/12/29 09:06:06;;;;;;;2.30;1.30;;;13.20;1.00;;;;;;5051552;28;20693;-58
2022/12/29 09:08:32;;;;;;;2.20;1.20;;;13.30;1.00;;;;;;5050924;28;20220;-57
2022/12/29 09:11:17;;;;;;;1.30;1.20;;;13.30;1.00;;;;;;5049855;28;20184;-58
2022/12/29 09:13:43;;;;;;;1.80;1.23;;;13.30;1.00;;;;;;5050846;28;20183;-57
2022/12/29 09:16:09;;;;;;;1.80;1.50;;;13.30;1.00;;;;;;5051122;28;20413;-57
2022/12/29 09:18:35;;;;;;;1.27;1.00;;;13.40;1.00;;;;;;5051067;28;20179;-56
2022/12/29 09:21:03;;;;;;;2.20;1.43;;;13.40;1.00;;;;;;5050668;28;21022;-57
2022/12/29 09:23:30;;;;;;;3.37;1.67;;;13.40;1.00;;;;;;5050330;28;20431;-57
2022/12/29 09:25:55;;;;;;;2.20;1.00;;;13.40;1.00;;;;;;5050071;28;20784;-57
2022/12/29 09:28:24;;;;;;;1.33;1.23;;;13.50;1.00;;;;;;5050359;28;20479;-57
2022/12/29 09:30:51;;;;;;;1.27;1.10;;;13.50;1.00;;;;;;5054926;28;20468;-58
2022/12/29 09:33:17;;;;;;;1.93;1.20;;;13.60;1.00;;;;;;5062430;28;20423;-59
2022/12/29 09:35:43;;;;;;;3.03;1.30;;;13.50;1.00;;;;;;5048991;28;20758;-57
2022/12/29 09:38:09;;;;;;;2.93;1.60;;;13.60;1.00;;;;;;5050162;28;20451;-57
2022/12/29 09:40:35;;;;;;;1.13;1.03;;;13.60;1.00;;;;;;5049153;28;20411;-57
2022/12/29 09:43:31;;;;;;;1.53;1.10;;;13.60;1.00;;;;;;5049002;28;20645;-57
2022/12/29 09:46:14;;;;;;;1.57;1.10;;;13.70;1.00;;;;;;5044628;28;20430;-58
2022/12/29 09:48:44;;;;;;;1.70;1.10;;;13.70;1.00;;;;;;5046892;28;21182;-57
2022/12/29 09:51:14;;;;;;;2.47;1.50;;;13.80;1.00;;;;;;5049038;28;20449;-58
2022/12/29 09:53:50;;;;;;;1.77;1.37;;;13.80;1.00;;;;;;5049933;28;20796;-59
2022/12/29 09:56:19;;;;;;;2.27;1.10;;;13.90;1.00;;;;;;5044662;28;20447;-58
2022/12/29 09:58:49;;;;;;;1.93;1.30;;;13.90;1.00;;;;;;5049884;28;20414;-57
2022/12/29 10:01:36;;;;;;;2.00;1.13;;;14.00;1.00;;;;;;5048327;28;20452;-57
2022/12/29 10:04:02;;;;;;;1.67;1.27;;;14.10;1.00;;;;;;5050054;28;20831;-57
2022/12/29 10:06:37;;;;;;;1.40;1.23;;;14.20;1.00;;;;;;5045953;28;20468;-58
2022/12/29 10:09:30;;;;;;;2.10;1.40;;;14.20;1.00;;;;;;5048774;28;20827;-58
2022/12/29 10:12:20;;;;;;;3.50;1.17;;;14.30;1.00;;;;;;5055190;28;20435;-57
2022/12/29 10:14:50;;;;;;;1.77;1.10;;;14.40;1.00;;;;;;5045534;28;20445;-58
2022/12/29 10:17:43;;;;;;;3.03;1.47;;;14.50;1.00;;;;;;5061550;28;20942;-57
2022/12/29 10:20:33;;;;;;;2.73;1.30;;;14.50;1.00;;;;;;5069354;28;20430;-57
2022/12/29 10:23:32;;;;;;;1.13;0.97;;;14.30;1.00;;;;;;5054561;28;20525;-57
2022/12/29 10:25:59;;;;;;;2.30;1.13;;;14.30;1.00;;;;;;5048620;28;20437;-58
2022/12/29 10:28:37;;;;;;;1.63;1.23;;;14.50;1.00;;;;;;5049307;28;20457;-57
2022/12/29 10:31:09;;;;;;;1.97;1.20;;;14.50;1.00;;;;;;5049165;28;20455;-57
2022/12/29 10:33:39;;;;;;;1.50;1.20;;;14.50;1.00;;;;;;5055087;28;20999;-57
2022/12/29 10:36:35;;;;;;;3.63;1.77;;;14.50;1.00;;;;;;5069083;28;20903;-57
2022/12/29 10:39:20;;;;;;;3.07;1.20;;;14.50;1.00;;;;;;5059801;28;20499;-57
2022/12/29 10:41:55;;;;;;;5.70;1.50;;;14.70;1.00;;;;;;5048825;28;20528;-56
2022/12/29 10:44:30;;;;;;;1.90;1.43;;;15.20;1.00;;;;;;5051249;28;20437;-57
2022/12/29 10:47:11;;;;;;;2.20;0.90;;;14.90;1.00;;;;;;5049812;28;20413;-58
2022/12/29 10:49:41;;;;;;;4.30;1.47;;;15.10;1.00;;;;;;5048039;28;20467;-57
2022/12/29 10:52:08;;;;;;;4.40;1.57;;;15.30;1.00;;;;;;5049328;28;20416;-57
2022/12/29 10:54:53;;;;;;;2.33;1.63;;;15.40;1.00;;;;;;5049061;28;20509;-57
2022/12/29 10:57:44;;;;;;;1.60;1.17;;;15.60;1.00;;;;;;5047572;28;20436;-58
2022/12/29 11:00:21;;;;;;;2.00;1.00;;;15.60;1.00;;;;;;5048969;28;20434;-57
2022/12/29 11:02:59;;;;;;;1.40;1.20;;;15.70;1.00;;;;;;5049291;28;20421;-59
2022/12/29 11:06:05;;;;;;;3.30;1.73;;;15.70;1.00;;;;;;5047212;28;20494;-58
2022/12/29 11:08:37;;;;;;;4.03;1.00;;;15.70;1.00;;;;;;5027179;28;20844;-56
2022/12/29 11:11:08;;;;;;;1.37;1.10;;;16.00;1.00;;;;;;5045010;28;20454;-58
2022/12/29 11:13:49;;;;;;;1.83;1.50;;;16.20;1.00;;;;;;5053653;28;21037;-56
2022/12/29 11:16:30;;;;;;;3.07;1.20;;;16.40;1.00;;;;;;5047448;28;20447;-57
2022/12/29 11:18:56;;;;;;;2.20;1.20;;;16.30;1.00;;;;;;5047636;28;20442;-56
2022/12/29 11:21:41;;;;;;;1.80;1.70;;;16.00;1.00;;;;;;5046512;28;20443;-57
2022/12/29 11:24:23;;;;;;;1.73;1.57;;;16.00;1.00;;;;;;5045127;28;20445;-55
2022/12/29 11:26:52;;;;;;;2.07;1.20;;;15.80;1.00;;;;;;5047970;28;20453;-57
2022/12/29 11:29:24;;;;;;;2.80;1.20;;;15.80;1.00;;;;;;5047205;28;20563;-57
2022/12/29 11:31:55;;;;;;;1.30;1.20;;;15.60;1.00;;;;;;5049654;28;20449;-57
2022/12/29 11:34:23;;;;;;;1.13;0.97;;;15.50;1.00;;;;;;5056825;28;20432;-57
2022/12/29 11:36:52;;;;;;;2.70;1.40;;;15.50;1.00;;;;;;5047754;28;20424;-57
2022/12/29 11:39:33;;;;;;;1.80;1.40;;;15.40;1.00;;;;;;5048548;28;20517;-57
2022/12/29 11:42:02;;;;;;;2.17;1.00;;;15.50;1.00;;;;;;5048375;28;20466;-57
2022/12/29 11:44:35;;;;;;;3.73;1.20;;;15.50;1.00;;;;;;5048516;28;20529;-58
2022/12/29 11:47:01;;;;;;;1.27;1.13;;;15.60;1.00;;;;;;5047118;28;20461;-56
2022/12/29 11:49:27;;;;;;;1.63;1.37;;;15.80;1.00;;;;;;5048696;28;20882;-56
2022/12/29 11:51:56;;;;;;;1.47;1.37;;;15.80;1.00;;;;;;5048519;28;20256;-57
2022/12/29 11:54:32;;;;;;;2.00;1.47;;;15.90;1.00;;;;;;5046282;28;20637;-57
2022/12/29 11:57:08;;;;;;;1.67;1.40;;;16.10;1.00;;;;;;5048418;28;21032;-57
2022/12/29 11:59:37;;;;;;;2.67;1.33;;;16.20;1.00;;;;;;5048489;28;20441;-57
2022/12/29 12:02:11;;;;;;;1.83;1.23;;;16.20;1.00;;;;;;5048388;28;20417;-58
2022/12/29 12:04:38;;;;;;;1.97;1.40;;;16.20;1.00;;;;;;5047597;28;20410;-57
2022/12/29 12:07:18;;;;;;;2.80;1.57;;;16.10;1.00;;;;;;5048207;28;20429;-57
2022/12/29 12:09:54;;;;;;;3.47;1.20;;;16.00;1.00;;;;;;5050251;28;20474;-57
2022/12/29 12:12:30;;;;;;;1.90;1.53;;;15.90;1.00;;;;;;5051855;28;20417;-57
2022/12/29 12:15:01;;;;;;;1.77;1.23;;;15.80;1.00;;;;;;5051805;28;20479;-57
2022/12/29 12:17:38;;;;;;;1.53;1.20;;;15.80;1.00;;;;;;5052145;28;20439;-56
2022/12/29 12:20:35;;;;;;;2.03;1.50;;;15.70;1.00;;;;;;5055022;28;20512;-55
2022/12/29 12:23:18;;;;;;;3.93;1.37;;;15.60;1.00;;;;;;5071831;28;20441;-55
2022/12/29 12:26:10;;;;;;;1.83;1.17;;;15.60;1.00;;;;;;5054458;28;20413;-55
2022/12/29 12:29:11;;;;;;;2.80;1.60;;;15.70;1.00;;;;;;5051523;28;20576;-56
2022/12/29 12:31:59;;;;;;;3.97;1.40;;;15.80;1.00;;;;;;5049929;28;20451;-56
2022/12/29 12:34:36;;;;;;;4.57;1.50;;;15.70;1.00;;;;;;5051606;28;20516;-56
2022/12/29 12:37:04;;;;;;;3.20;1.57;;;15.80;1.00;;;;;;5051470;28;20484;-55
2022/12/29 12:39:47;;;;;;;2.53;1.70;;;15.90;1.00;;;;;;5050213;28;20432;-56
2022/12/29 12:42:40;;;;;;;1.50;1.23;;;15.80;1.00;;;;;;5063770;28;20552;-55
2022/12/29 12:45:54;;;;;;;2.07;1.27;;;15.80;1.00;;;;;;5071139;28;20519;-55
2022/12/29 12:48:49;;;;;;;2.43;1.57;;;15.70;1.00;;;;;;5057707;28;20501;-56
2022/12/29 12:51:18;;;;;;;4.23;2.40;;;15.70;1.00;;;;;;5071183;28;20852;-56
2022/12/29 12:54:02;;;;;;;2.20;1.87;;;15.70;1.00;;;;;;5059242;28;20446;-56
2022/12/29 12:56:37;;;;;;;1.87;1.40;;;15.80;1.00;;;;;;5050029;28;20504;-56
2022/12/29 12:59:29;;;;;;;1.43;1.30;;;15.80;1.00;;;;;;5051814;28;20998;-55
2022/12/29 13:02:18;;;;;;;3.33;1.43;;;15.80;1.00;;;;;;5050793;28;20468;-56
2022/12/29 13:05:19;;;;;;;2.07;1.40;;;15.80;1.00;;;;;;5067853;28;20995;-55
2022/12/29 13:08:06;;;;;;;4.93;1.30;;;15.80;1.00;;;;;;5060001;28;20423;-55
2022/12/29 13:10:31;;;;;;;2.17;1.77;;;15.80;1.00;;;;;;5048777;28;20827;-56
2022/12/29 13:13:15;;;;;;;2.13;1.47;;;15.80;1.00;;;;;;5049432;28;20478;-56
2022/12/29 13:16:13;;;;;;;2.77;1.20;;;15.70;1.00;;;;;;5050716;28;20648;-56
2022/12/29 13:18:56;;;;;;;2.80;1.63;;;15.90;1.00;;;;;;5044429;28;20467;-55
2022/12/29 13:21:57;;;;;;;1.90;1.50;;;16.10;1.00;;;;;;5050932;28;20441;-55
2022/12/29 13:24:34;;;;;;;2.60;1.70;;;16.30;1.00;;;;;;5051032;28;20472;-55
2022/12/29 13:27:09;;;;;;;2.17;1.77;;;16.30;1.00;;;;;;5050915;28;20781;-56
2022/12/29 13:29:52;;;;;;;2.23;1.47;;;16.20;1.00;;;;;;5048435;28;20800;-56
2022/12/29 13:32:42;;;;;;;2.07;1.47;;;16.20;1.00;;;;;;5049361;28;20475;-56
2022/12/29 13:35:23;;;;;;;2.57;1.67;;;16.00;1.00;;;;;;5049804;28;20505;-55
2022/12/29 13:38:00;;;;;;;2.47;1.20;;;16.00;1.00;;;;;;5050718;28;20517;-56
2022/12/29 13:40:28;;;;;;;2.83;1.30;;;15.90;1.00;;;;;;5043329;28;20435;-56
2022/12/29 13:42:56;;;;;;;1.67;1.30;;;15.80;1.00;;;;;;5050447;28;20445;-55
2022/12/29 13:45:26;;;;;;;1.47;1.23;;;15.80;1.00;;;;;;5049853;28;20792;-55
2022/12/29 13:48:15;;;;;;;2.10;1.40;;;15.80;1.00;;;;;;5050044;28;20533;-57
2022/12/29 13:50:41;;;;;;;1.63;1.10;;;15.80;1.00;;;;;;5050073;28;20531;-57
2022/12/29 13:53:19;;;;;;;1.33;1.23;;;15.70;1.00;;;;;;5049895;28;20442;-56
2022/12/29 13:56:09;;;;;;;3.87;1.40;;;15.40;1.00;;;;;;5049658;28;20948;-56
2022/12/29 13:58:48;;;;;;;2.77;1.33;;;15.50;1.00;;;;;;5043116;28;20504;-56
2022/12/29 14:01:34;;;;;;;1.93;1.60;;;15.40;1.00;;;;;;5049817;28;20442;-56
2022/12/29 14:04:02;;;;;;;1.77;1.20;;;15.50;1.00;;;;;;5048515;28;20417;-56